Time;durP1;ratioP1;P1;durP2;ratioP2;P2;SDS_P1;SDS_P2;PMS_P1;PMS_P2;Temp;Humidity;BMP_temperature;BMP_pressure;BME280_temperature;BME280_humidity;BME280_pressure;Samples;Min_cycle;Max_cycle;Signal;HPM_P1;HPM_P2
2022/06/03 00:00:20;;;;;;;;;;;;;;;22.01;45.62;101671.63;7271856;19;151886;-57
2022/06/03 00:03:02;;;;;;;;;;;;;;;21.98;45.65;101670.28;7270104;19;153434;-57
2022/06/03 00:05:42;;;;;;;;;;;;;;;21.98;45.84;101672.25;7281158;19;152310;-57
2022/06/03 00:08:28;;;;;;;;;;;;;;;21.99;45.71;101665.47;7276002;19;154267;-56
2022/06/03 00:11:01;;;;;;;;;;;;;;;21.96;45.71;101660.44;7274451;19;152107;-57
2022/06/03 00:13:39;;;;;;;;;;;;;;;21.96;45.76;101660.44;7279062;19;153492;-58
2022/06/03 00:16:15;;;;;;;;;;;;;;;21.94;45.67;101663.53;7279551;19;153436;-57
2022/06/03 00:18:53;;;;;;;;;;;;;;;21.92;45.67;101660.19;7276988;19;152008;-57
2022/06/03 00:21:29;;;;;;;;;;;;;;;21.89;46.23;101659.94;7281216;19;152923;-56
2022/06/03 00:24:08;;;;;;;;;;;;;;;21.88;46.23;101652.63;7278676;19;154588;-57
2022/06/03 00:26:37;;;;;;;;;;;;;;;21.86;45.99;101652.09;7287812;19;151928;-56
2022/06/03 00:29:04;;;;;;;;;;;;;;;21.85;46.09;101654.06;7279067;19;154236;-55
2022/06/03 00:31:37;;;;;;;;;;;;;;;21.84;46.16;101651.56;7280891;19;152144;-57
2022/06/03 00:34:42;;;;;;;;;;;;;;;21.82;45.99;101649.03;7280588;19;153571;-57
2022/06/03 00:37:15;;;;;;;;;;;;;;;21.80;46.44;101642.06;7274331;19;154472;-57
2022/06/03 00:39:59;;;;;;;;;;;;;;;21.85;45.97;101642.00;7272918;19;155707;-56
2022/06/03 00:42:45;;;;;;;;;;;;;;;21.82;46.24;101642.56;7276781;19;153335;-56
2022/06/03 00:45:38;;;;;;;;;;;;;;;21.79;46.66;101635.59;7276637;19;153227;-56
2022/06/03 00:48:24;;;;;;;;;;;;;;;21.78;46.68;101644.31;7282996;19;152402;-56
2022/06/03 00:51:10;;;;;;;;;;;;;;;21.83;46.59;101635.81;7286097;19;154496;-58
2022/06/03 00:53:45;;;;;;;;;;;;;;;21.81;46.71;101643.72;7283160;19;152204;-56
2022/06/03 00:56:24;;;;;;;;;;;;;;;21.80;46.94;101645.72;7280053;19;153351;-56
2022/06/03 00:59:02;;;;;;;;;;;;;;;21.77;47.34;101642.63;7281866;19;153206;-57
2022/06/03 01:01:38;;;;;;;;;;;;;;;21.77;47.04;101643.47;7282118;19;152012;-56
2022/06/03 01:04:25;;;;;;;;;;;;;;;21.76;47.22;101643.78;7279041;19;154685;-56
2022/06/03 01:07:01;;;;;;;;;;;;;;;21.76;47.20;101643.78;7278656;19;153362;-57
2022/06/03 01:09:35;;;;;;;;;;;;;;;21.73;47.52;101646.06;7279645;19;153017;-56
2022/06/03 01:12:02;;;;;;;;;;;;;;;21.73;47.65;101646.06;7277667;19;152404;-57
2022/06/03 01:14:32;;;;;;;;;;;;;;;21.73;47.51;101650.84;7283092;19;154526;-57
2022/06/03 01:16:59;;;;;;;;;;;;;;;21.72;47.65;101650.00;7283143;19;153516;-57
2022/06/03 01:20:05;;;;;;;;;;;;;;;21.72;47.94;101644.38;7277230;19;154119;-57
2022/06/03 01:22:40;;;;;;;;;;;;;;;21.72;48.02;101637.91;7279856;19;155824;-56
2022/06/03 01:25:29;;;;;;;;;;;;;;;21.70;48.27;101641.03;7279496;19;152394;-56
2022/06/03 01:28:17;;;;;;;;;;;;;;;21.70;48.41;101632.59;7279006;19;153279;-57
2022/06/03 01:31:03;;;;;;;;;;;;;;;21.68;48.16;101637.69;7281054;19;153506;-57
2022/06/03 01:33:48;;;;;;;;;;;;;;;21.67;48.65;101624.75;7280595;19;153513;-57
2022/06/03 01:36:21;;;;;;;;;;;;;;;21.66;48.39;101620.28;7279086;19;153360;-57
2022/06/03 01:38:48;;;;;;;;;;;;;;;21.65;48.47;101618.59;7290593;19;152044;-58
2022/06/03 01:41:27;;;;;;;;;;;;;;;21.66;48.85;101617.47;7280042;19;153970;-56
2022/06/03 01:44:13;;;;;;;;;;;;;;;21.66;48.76;101623.09;7278986;19;151827;-56
2022/06/03 01:46:45;;;;;;;;;;;;;;;21.65;48.71;101612.97;7280960;19;153372;-57
2022/06/03 01:49:18;;;;;;;;;;;;;;;21.64;48.89;101618.88;7280139;19;154088;-58
2022/06/03 01:51:45;;;;;;;;;;;;;;;21.63;49.28;101615.22;7280991;19;152080;-56
2022/06/03 01:54:51;;;;;;;;;;;;;;;21.62;49.21;101609.94;7280048;19;153440;-56
2022/06/03 01:57:17;;;;;;;;;;;;;;;21.60;49.40;101600.94;7273708;19;152320;-56
2022/06/03 01:59:44;;;;;;;;;;;;;;;21.59;49.48;101600.09;7277623;19;152061;-57
2022/06/03 02:02:11;;;;;;;;;;;;;;;21.60;49.26;101604.59;7283283;19;152951;-58
2022/06/03 02:04:37;;;;;;;;;;;;;;;21.59;49.66;101602.06;7277991;19;151786;-57
2022/06/03 02:07:26;;;;;;;;;;;;;;;21.59;49.40;101605.72;7280560;19;153502;-56
2022/06/03 02:09:56;;;;;;;;;;;;;;;21.56;49.71;101589.47;7279477;19;153199;-56
2022/06/03 02:12:25;;;;;;;;;;;;;;;21.58;49.63;101595.59;7276846;19;152286;-57
2022/06/03 02:14:55;;;;;;;;;;;;;;;21.55;49.71;101590.59;7277932;19;155268;-57
2022/06/03 02:17:37;;;;;;;;;;;;;;;21.55;50.09;101590.59;7275819;19;154022;-57
2022/06/03 02:20:23;;;;;;;;;;;;;;;21.55;49.90;101590.59;7279863;19;152319;-56
2022/06/03 02:23:06;;;;;;;;;;;;;;;21.54;49.91;101585.25;7279898;19;153133;-56
2022/06/03 02:25:35;;;;;;;;;;;;;;;21.54;50.22;101577.66;7286761;19;154052;-57
2022/06/03 02:28:21;;;;;;;;;;;;;;;21.53;50.26;101578.78;7280047;19;156288;-56
2022/06/03 02:30:47;;;;;;;;;;;;;;;21.52;50.30;101576.31;7278354;19;153855;-56
2022/06/03 02:33:14;;;;;;;;;;;;;;;21.50;50.00;101570.97;7280310;19;151808;-56
2022/06/03 02:35:58;;;;;;;;;;;;;;;21.50;50.36;101570.97;7277900;19;152518;-57
2022/06/03 02:38:28;;;;;;;;;;;;;;;21.49;50.26;101566.47;7278374;19;154264;-56
2022/06/03 02:41:13;;;;;;;;;;;;;;;21.49;50.36;101562.81;7278581;19;152349;-57
2022/06/03 02:43:49;;;;;;;;;;;;;;;21.47;50.47;101560.34;7277157;19;153394;-57
2022/06/03 02:46:39;;;;;;;;;;;;;;;21.48;50.38;101564.81;7287461;19;154406;-56
2022/06/03 02:49:15;;;;;;;;;;;;;;;21.47;50.25;101562.31;7277036;19;152641;-57
2022/06/03 02:52:01;;;;;;;;;;;;;;;21.46;50.70;101555.84;7279042;19;153146;-56
2022/06/03 02:54:36;;;;;;;;;;;;;;;21.46;50.35;101557.81;7279137;19;152543;-56
2022/06/03 02:57:09;;;;;;;;;;;;;;;21.46;50.58;101553.03;7279176;19;153573;-56
2022/06/03 02:59:54;;;;;;;;;;;;;;;21.45;50.32;101551.34;7278534;19;153731;-57
2022/06/03 03:02:37;;;;;;;;;;;;;;;21.45;50.96;101558.94;7276366;19;152270;-57
2022/06/03 03:05:13;;;;;;;;;;;;;;;21.45;50.63;101548.53;7277747;19;153436;-56
2022/06/03 03:07:47;;;;;;;;;;;;;;;21.45;50.74;101542.06;7278284;19;154250;-56
2022/06/03 03:10:32;;;;;;;;;;;;;;;21.43;50.75;101533.13;7285380;19;152128;-56
2022/06/03 03:13:10;;;;;;;;;;;;;;;21.43;50.74;101531.16;7277125;19;153253;-56
2022/06/03 03:16:03;;;;;;;;;;;;;;;21.44;50.86;101526.38;7275171;19;151828;-57
2022/06/03 03:18:48;;;;;;;;;;;;;;;21.43;51.23;101527.50;7278653;19;153534;-57
2022/06/03 03:21:29;;;;;;;;;;;;;;;21.43;50.85;101533.13;7276518;19;152079;-56
2022/06/03 03:23:56;;;;;;;;;;;;;;;21.42;51.13;101529.47;7274804;19;151984;-57
2022/06/03 03:26:23;;;;;;;;;;;;;;;21.42;51.23;101531.44;7279262;19;153050;-57
2022/06/03 03:28:49;;;;;;;;;;;;;;;21.41;51.31;101527.78;7273879;19;154107;-57
2022/06/03 03:31:35;;;;;;;;;;;;;;;21.41;50.97;101522.16;7279246;19;151692;-57
2022/06/03 03:34:01;;;;;;;;;;;;;;;21.41;51.37;101530.59;7284921;19;153154;-56
2022/06/03 03:36:43;;;;;;;;;;;;;;;21.42;51.00;101528.63;7278581;19;151884;-57
2022/06/03 03:39:12;;;;;;;;;;;;;;;21.40;50.99;101531.72;7276596;19;152660;-57
2022/06/03 03:41:52;;;;;;;;;;;;;;;21.40;51.19;101536.50;7275402;19;153321;-57
2022/06/03 03:44:31;;;;;;;;;;;;;;;21.40;51.26;101519.66;7281159;19;151775;-57
2022/06/03 03:47:18;;;;;;;;;;;;;;;21.40;51.32;101526.09;7281905;19;153600;-56
2022/06/03 03:49:57;;;;;;;;;;;;;;;21.39;51.51;101527.25;7281863;19;153258;-57
2022/06/03 03:52:49;;;;;;;;;;;;;;;21.40;51.42;101530.88;7283059;19;152228;-56
2022/06/03 03:55:39;;;;;;;;;;;;;;;21.39;51.35;101532.88;7283269;19;154655;-57
2022/06/03 03:58:25;;;;;;;;;;;;;;;21.38;51.54;101528.41;7288484;19;154240;-57
2022/06/03 04:01:07;;;;;;;;;;;;;;;21.38;51.74;101525.59;7284314;19;153276;-57
2022/06/03 04:03:34;;;;;;;;;;;;;;;21.42;51.53;101521.03;7280916;19;152884;-56
2022/06/03 04:06:01;;;;;;;;;;;;;;;21.41;51.77;101513.72;7284612;19;152065;-57
2022/06/03 04:08:42;;;;;;;;;;;;;;;21.40;51.71;101514.03;7283158;19;153091;-57
2022/06/03 04:11:12;;;;;;;;;;;;;;;21.38;51.79;101505.06;7282333;19;153200;-56
2022/06/03 04:13:56;;;;;;;;;;;;;;;21.38;51.83;101502.25;7279948;19;152187;-57
2022/06/03 04:16:32;;;;;;;;;;;;;;;21.38;52.21;101505.06;7279282;19;153210;-57
2022/06/03 04:19:11;;;;;;;;;;;;;;;21.36;52.14;101496.94;7282650;19;153213;-57
2022/06/03 04:22:04;;;;;;;;;;;;;;;21.37;52.43;101500.56;7291661;19;152287;-56
2022/06/03 04:24:33;;;;;;;;;;;;;;;21.36;52.33;101499.75;7280160;19;153528;-58
2022/06/03 04:27:22;;;;;;;;;;;;;;;21.36;52.54;101499.75;7283806;19;151885;-57
2022/06/03 04:30:23;;;;;;;;;;;;;;;21.37;52.38;101501.41;7284022;19;153584;-56
2022/06/03 04:32:53;;;;;;;;;;;;;;;21.35;52.65;101503.69;7281024;19;153505;-57
2022/06/03 04:35:40;;;;;;;;;;;;;;;21.35;52.75;101509.31;7282897;19;152206;-57
2022/06/03 04:38:25;;;;;;;;;;;;;;;21.36;52.60;101508.16;7284249;19;153332;-57
2022/06/03 04:41:04;;;;;;;;;;;;;;;21.34;52.63;101504.00;7279890;19;153935;-56
2022/06/03 04:43:43;;;;;;;;;;;;;;;21.33;52.47;101514.41;7282766;19;152039;-57
2022/06/03 04:46:16;;;;;;;;;;;;;;;21.34;52.77;101518.06;7288950;19;152720;-57
2022/06/03 04:49:01;;;;;;;;;;;;;;;21.33;52.76;101522.00;7281366;19;152093;-57
2022/06/03 04:51:46;;;;;;;;;;;;;;;21.32;52.81;101521.16;7282922;19;153774;-58
2022/06/03 04:54:16;;;;;;;;;;;;;;;21.31;52.79;101525.09;7281729;19;153367;-62
2022/06/03 04:57:02;;;;;;;;;;;;;;;21.31;52.54;101527.91;7281053;19;151702;-57
2022/06/03 04:59:32;;;;;;;;;;;;;;;21.29;52.95;101525.41;7282988;19;153206;-57
2022/06/03 05:02:01;;;;;;;;;;;;;;;21.30;52.44;101524.25;7280369;19;155251;-59
2022/06/03 05:04:40;;;;;;;;;;;;;;;21.29;52.95;101527.38;7279188;19;151936;-57
2022/06/03 05:07:28;;;;;;;;;;;;;;;21.29;52.63;101521.75;7287587;19;153165;-58
2022/06/03 05:10:07;;;;;;;;;;;;;;;21.28;52.85;101522.91;7279628;19;152202;-57
2022/06/03 05:12:34;;;;;;;;;;;;;;;21.28;52.83;101520.09;7282531;19;152663;-57
2022/06/03 05:15:16;;;;;;;;;;;;;;;21.28;52.67;101520.94;7278401;19;153790;-57
2022/06/03 05:17:52;;;;;;;;;;;;;;;21.29;52.56;101521.75;7277520;19;152525;-57
2022/06/03 05:20:38;;;;;;;;;;;;;;;21.29;52.74;101518.94;7281728;19;153647;-57
2022/06/03 05:23:24;;;;;;;;;;;;;;;21.29;52.72;101514.16;7280487;19;154464;-57
2022/06/03 05:26:02;;;;;;;;;;;;;;;21.28;52.55;101520.09;7281129;19;152506;-57
2022/06/03 05:28:39;;;;;;;;;;;;;;;21.33;52.84;101517.22;7282577;19;152659;-58
2022/06/03 05:31:14;;;;;;;;;;;;;;;21.29;52.89;101522.59;7287522;19;153248;-57
2022/06/03 05:34:00;;;;;;;;;;;;;;;21.28;52.71;101531.31;7281113;19;152011;-57
2022/06/03 05:36:30;;;;;;;;;;;;;;;21.27;53.05;101535.25;7282177;19;153273;-57
2022/06/03 05:39:25;;;;;;;;;;;;;;;21.26;53.12;101537.25;7280277;19;152073;-58
2022/06/03 05:45:03;;;;;;;;;;;;;;;21.26;52.98;101536.41;7278422;19;153270;-56
2022/06/03 05:47:38;;;;;;;;;;;;;;;21.27;53.03;101533.28;7280693;19;151948;-58
2022/06/03 05:50:04;;;;;;;;;;;;;;;21.28;52.88;101534.13;7280080;19;152811;-57
2022/06/03 05:52:50;;;;;;;;;;;;;;;21.26;52.79;101537.25;7276857;19;155645;-58
2022/06/03 05:55:17;;;;;;;;;;;;;;;21.26;52.98;101542.00;7287945;19;151822;-58
2022/06/03 05:57:53;;;;;;;;;;;;;;;21.24;52.93;101535.88;7278842;19;153994;-57
2022/06/03 06:00:26;;;;;;;;;;;;;;;21.25;53.03;101546.00;7279852;19;152343;-58
2022/06/03 06:03:13;;;;;;;;;;;;;;;21.23;53.11;101542.63;7278739;19;154296;-58
2022/06/03 06:05:47;;;;;;;;;;;;;;;21.23;53.30;101540.66;7272877;19;153275;-57
2022/06/03 06:08:38;;;;;;;;;;;;;;;21.23;52.96;101534.19;7280448;19;152280;-58
2022/06/03 06:11:08;;;;;;;;;;;;;;;21.22;52.98;101535.31;7279847;19;153487;-57
2022/06/03 06:13:44;;;;;;;;;;;;;;;21.23;53.24;101528.56;7279009;19;154085;-58
2022/06/03 06:16:18;;;;;;;;;;;;;;;21.22;53.36;101538.13;7279205;19;152772;-57
2022/06/03 06:18:45;;;;;;;;;;;;;;;21.21;53.05;101533.66;7282889;19;153287;-56
2022/06/03 06:21:20;;;;;;;;;;;;;;;21.22;53.15;101541.78;7278744;19;151806;-58
2022/06/03 06:24:10;;;;;;;;;;;;;;;21.27;52.95;101538.91;7279997;19;153001;-57
2022/06/03 06:26:37;;;;;;;;;;;;;;;21.29;53.37;101538.63;7277823;19;153652;-57
2022/06/03 06:29:03;;;;;;;;;;;;;;;21.32;53.50;101535.22;7279277;19;152089;-57
2022/06/03 06:31:42;;;;;;;;;;;;;;;21.38;53.67;101538.81;7279995;19;152923;-56
2022/06/03 06:34:16;;;;;;;;;;;;;;;21.43;53.72;101541.56;7280286;19;153556;-57
2022/06/03 06:36:55;;;;;;;;;;;;;;;21.47;53.99;101540.66;7279697;19;151778;-57
2022/06/03 06:39:39;;;;;;;;;;;;;;;21.53;53.82;101539.44;7279624;19;153261;-58
2022/06/03 06:42:26;;;;;;;;;;;;;;;21.57;53.51;101534.06;7286156;19;154013;-57
2022/06/03 06:45:12;;;;;;;;;;;;;;;21.61;53.60;101530.34;7275660;19;153235;-57
2022/06/03 06:47:46;;;;;;;;;;;;;;;21.67;53.47;101533.91;7278595;19;153941;-56
2022/06/03 06:50:24;;;;;;;;;;;;;;;21.69;53.70;101526.84;7279526;19;152343;-56
2022/06/03 06:53:02;;;;;;;;;;;;;;;21.72;53.34;101526.25;7278666;19;152749;-57
2022/06/03 06:55:28;;;;;;;;;;;;;;;21.76;53.25;101531.28;7276983;19;153555;-56
2022/06/03 06:57:59;;;;;;;;;;;;;;;21.79;53.38;101530.66;7279174;19;151856;-57
2022/06/03 07:00:36;;;;;;;;;;;;;;;21.80;52.99;101524.75;7279173;19;153019;-57
2022/06/03 07:03:10;;;;;;;;;;;;;;;21.84;52.84;101533.41;7277077;19;153727;-56
2022/06/03 07:05:43;;;;;;;;;;;;;;;21.86;53.03;101536.75;7285355;19;151970;-56
2022/06/03 07:08:19;;;;;;;;;;;;;;;21.88;52.87;101531.66;7278434;19;153313;-57
2022/06/03 07:10:49;;;;;;;;;;;;;;;21.90;53.23;101535.00;7278459;19;152529;-57
2022/06/03 07:13:18;;;;;;;;;;;;;;;21.93;52.87;101531.63;7278344;19;152607;-57
2022/06/03 07:15:53;;;;;;;;;;;;;;;21.94;53.42;101538.94;7278710;19;153242;-57
2022/06/03 07:21:16;;;;;;;;;;;;;;;21.97;52.99;101535.50;7278346;19;153344;-56
2022/06/03 07:23:50;;;;;;;;;;;;;;;21.97;52.72;101533.53;7277722;19;153749;-56
2022/06/03 07:26:34;;;;;;;;;;;;;;;21.97;52.89;101527.91;7284000;19;152066;-56
2022/06/03 07:29:09;;;;;;;;;;;;;;;21.97;52.94;101527.91;7274726;19;154441;-56
2022/06/03 07:31:48;;;;;;;;;;;;;;;21.98;52.83;101529.56;7279270;19;152216;-57
2022/06/03 07:34:28;;;;;;;;;;;;;;;21.99;52.75;101527.56;7276908;19;154037;-56
2022/06/03 07:36:55;;;;;;;;;;;;;;;21.98;52.68;101518.31;7276398;19;153305;-57
2022/06/03 07:39:38;;;;;;;;;;;;;;;21.99;52.86;101522.78;7277394;19;151769;-56
2022/06/03 07:42:23;;;;;;;;;;;;;;;22.00;53.15;101515.19;7277341;19;153508;-56
2022/06/03 07:45:02;;;;;;;;;;;;;;;21.99;53.25;101522.78;7274426;19;153778;-57
2022/06/03 07:47:34;;;;;;;;;;;;;;;21.99;53.31;101519.97;7278762;19;152162;-56
2022/06/03 07:50:04;;;;;;;;;;;;;;;22.00;53.37;101526.44;7283943;19;153376;-56
2022/06/03 07:52:47;;;;;;;;;;;;;;;21.99;53.50;101521.94;7278291;19;152610;-57
2022/06/03 07:55:16;;;;;;;;;;;;;;;22.00;53.17;101521.66;7277941;19;154438;-55
2022/06/03 07:57:49;;;;;;;;;;;;;;;22.01;53.50;101522.50;7277010;19;154333;-57
2022/06/03 08:00:17;;;;;;;;;;;;;;;22.00;53.82;101513.22;7277593;19;152355;-57
2022/06/03 08:02:44;;;;;;;;;;;;;;;22.00;53.79;101506.75;7276353;19;153410;-56
2022/06/03 08:05:17;;;;;;;;;;;;;;;21.99;53.72;101507.88;7275033;19;154795;-56
2022/06/03 08:10:56;;;;;;;;;;;;;;;22.00;53.67;101506.75;7276649;19;153461;-57
2022/06/03 08:13:26;;;;;;;;;;;;;;;21.99;53.92;101503.09;7281902;19;153922;-57
2022/06/03 08:15:56;;;;;;;;;;;;;;;21.98;54.04;101507.06;7274892;19;154461;-56
2022/06/03 08:18:25;;;;;;;;;;;;;;;21.99;54.28;101503.09;7273666;19;153743;-57
2022/06/03 08:20:54;;;;;;;;;;;;;;;21.98;53.85;101498.63;7272344;19;152009;-56
2022/06/03 08:23:22;;;;;;;;;;;;;;;21.98;53.89;101498.63;7277508;19;153873;-56
2022/06/03 08:25:51;;;;;;;;;;;;;;;21.98;54.03;101498.63;7274301;19;154026;-55
2022/06/03 08:28:20;;;;;;;;;;;;;;;21.98;54.16;101497.78;7273570;19;151794;-57
2022/06/03 08:30:50;;;;;;;;;;;;;;;21.98;54.13;101492.16;7284366;19;153165;-57
2022/06/03 08:33:20;;;;;;;;;;;;;;;21.99;53.98;101497.47;7282580;19;157117;-56
2022/06/03 08:35:48;;;;;;;;;;;;;;;21.99;54.18;101496.63;7289101;19;151865;-56
2022/06/03 08:38:19;;;;;;;;;;;;;;;22.00;54.46;101501.94;7282284;19;153306;-57
2022/06/03 08:41:04;;;;;;;;;;;;;;;22.02;54.21;101498.84;7282043;19;152031;-56
2022/06/03 08:43:50;;;;;;;;;;;;;;;22.02;54.72;101507.28;7283968;19;153043;-56
2022/06/03 08:46:32;;;;;;;;;;;;;;;22.03;54.62;101500.53;7280111;19;152498;-56
2022/06/03 08:49:01;;;;;;;;;;;;;;;22.12;54.80;101502.31;7281214;19;151749;-56
2022/06/03 08:51:40;;;;;;;;;;;;;;;22.01;52.29;101502.78;7281410;19;153029;-56
2022/06/03 08:54:20;;;;;;;;;;;;;;;21.98;52.88;101498.63;7281249;19;154255;-56
2022/06/03 08:56:49;;;;;;;;;;;;;;;21.94;52.36;101503.16;7281705;19;152768;-56
2022/06/03 08:59:29;;;;;;;;;;;;;;;21.93;52.49;101497.88;7286086;19;152813;-57
2022/06/03 09:01:55;;;;;;;;;;;;;;;21.96;52.44;101503.72;7281849;19;151997;-56
2022/06/03 09:04:22;;;;;;;;;;;;;;;21.97;52.10;101504.53;7282023;19;153899;-57
2022/06/03 09:06:52;;;;;;;;;;;;;;;22.00;51.96;101504.78;7279430;19;153437;-58
2022/06/03 09:09:18;;;;;;;;;;;;;;;22.02;51.99;101501.66;7281834;19;154685;-57
2022/06/03 09:11:54;;;;;;;;;;;;;;;22.06;51.78;101505.53;7281310;19;153756;-58
2022/06/03 09:14:22;;;;;;;;;;;;;;;22.14;51.27;101516.09;7278650;19;153360;-56
2022/06/03 09:16:50;;;;;;;;;;;;;;;22.16;50.98;101520.28;7281930;19;151936;-56
2022/06/03 09:19:23;;;;;;;;;;;;;;;22.16;51.59;101516.63;7279348;19;153407;-57
2022/06/03 09:21:51;;;;;;;;;;;;;;;22.19;51.22;101516.00;7284760;19;152084;-56
2022/06/03 09:24:23;;;;;;;;;;;;;;;22.18;51.37;101512.34;7280892;19;152540;-58
2022/06/03 09:26:54;;;;;;;;;;;;;;;22.20;51.26;101503.63;7279067;19;153312;-57
2022/06/03 09:29:21;;;;;;;;;;;;;;;22.27;51.14;101511.66;7281542;19;151639;-55
2022/06/03 09:31:50;;;;;;;;;;;;;;;22.26;50.77;101499.56;7278773;19;153331;-57
2022/06/03 09:34:22;;;;;;;;;;;;;;;22.29;50.53;101496.16;7280542;19;153876;-56
2022/06/03 09:36:53;;;;;;;;;;;;;;;22.30;50.91;101492.19;7282219;19;154876;-58
2022/06/03 09:39:40;;;;;;;;;;;;;;;22.33;50.81;101485.94;7282033;19;153244;-58
2022/06/03 09:42:12;;;;;;;;;;;;;;;22.35;50.71;101488.47;7285389;19;153745;-56
2022/06/03 09:44:40;;;;;;;;;;;;;;;22.42;50.69;101489.72;7281143;19;152704;-55
2022/06/03 09:47:09;;;;;;;;;;;;;;;22.42;50.64;101483.25;7277230;19;154102;-57
2022/06/03 09:49:36;;;;;;;;;;;;;;;22.44;50.27;101487.41;7273506;19;152474;-56
2022/06/03 09:52:08;;;;;;;;;;;;;;;22.45;50.34;101491.91;7280599;19;153210;-56
2022/06/03 09:54:38;;;;;;;;;;;;;;;22.46;50.44;101492.75;7280005;19;153812;-57
2022/06/03 09:57:31;;;;;;;;;;;;;;;22.47;49.87;101497.25;7279616;19;153060;-58
2022/06/03 10:00:13;;;;;;;;;;;;;;;22.51;49.78;101503.94;7277275;19;153629;-56
2022/06/03 10:02:41;;;;;;;;;;;;;;;22.49;49.83;101501.41;7277002;19;153981;-57
2022/06/03 10:05:10;;;;;;;;;;;;;;;22.50;49.46;101499.44;7282835;19;152269;-57
2022/06/03 10:07:41;;;;;;;;;;;;;;;22.50;49.66;101494.66;7279509;19;153245;-57
2022/06/03 10:12:56;;;;;;;;;;;;;;;22.50;49.15;101494.66;7281567;19;153194;-55
2022/06/03 10:15:43;;;;;;;;;;;;;;;22.51;49.63;101498.31;7278149;19;153385;-56
2022/06/03 10:18:23;;;;;;;;;;;;;;;22.52;49.33;101494.34;7279748;19;151946;-57
2022/06/03 10:20:54;;;;;;;;;;;;;;;22.51;49.33;101496.31;7275545;19;153629;-57
2022/06/03 10:23:24;;;;;;;;;;;;;;;22.52;49.39;101492.38;7276664;19;154099;-57
2022/06/03 10:26:25;;;;;;;;;;;;;;;22.50;49.09;101496.63;7279204;19;152612;-57
2022/06/03 10:28:53;;;;;;;;;;;;;;;22.48;49.23;101496.94;7285521;19;152993;-57
2022/06/03 10:31:25;;;;;;;;;;;;;;;22.50;48.88;101491.00;7279125;19;152628;-56
2022/06/03 10:33:53;;;;;;;;;;;;;;;22.48;49.15;101496.94;7278824;19;153439;-55
2022/06/03 10:36:26;;;;;;;;;;;;;;;22.48;49.25;101494.13;7277775;19;154716;-58
2022/06/03 10:38:53;;;;;;;;;;;;;;;22.48;49.29;101490.47;7278620;19;152793;-56
2022/06/03 10:41:29;;;;;;;;;;;;;;;22.45;49.04;101497.53;7280039;19;153378;-58
2022/06/03 10:43:56;;;;;;;;;;;;;;;22.45;49.25;101489.09;7279197;19;153406;-57
2022/06/03 10:46:29;;;;;;;;;;;;;;;22.47;49.20;101485.97;7277563;19;152122;-55
2022/06/03 10:49:15;;;;;;;;;;;;;;;22.47;49.29;101488.81;7280305;19;154264;-56
2022/06/03 11:05:40;;;;;;;;;;;;;;;22.45;49.34;101477.00;7275473;19;154503;-57
2022/06/03 11:08:13;;;;;;;;;;;;;;;22.46;49.14;101475.84;7278006;19;153083;-55
2022/06/03 11:10:50;;;;;;;;;;;;;;;22.44;49.04;101476.16;7275491;19;152494;-57
2022/06/03 11:13:30;;;;;;;;;;;;;;;22.45;48.91;101474.19;7274342;19;154835;-56
2022/06/03 11:16:11;;;;;;;;;;;;;;;22.43;49.26;101474.50;7283871;19;151780;-56
2022/06/03 11:18:42;;;;;;;;;;;;;;;22.45;49.19;101475.03;7275346;19;153589;-57
2022/06/03 11:21:23;;;;;;;;;;;;;;;22.43;49.13;101474.50;7273683;19;152400;-57
2022/06/03 11:23:52;;;;;;;;;;;;;;;22.44;49.21;101473.34;7275379;19;153546;-56
2022/06/03 11:26:26;;;;;;;;;;;;;;;22.43;49.02;101468.03;7276738;19;152794;-57
2022/06/03 11:29:15;;;;;;;;;;;;;;;22.40;49.05;101469.47;7278932;19;152173;-56
2022/06/03 11:31:45;;;;;;;;;;;;;;;22.43;49.01;101463.25;7275150;19;154933;-58
2022/06/03 11:34:30;;;;;;;;;;;;;;;22.44;48.93;101462.06;7275144;19;152727;-59
2022/06/03 11:37:01;;;;;;;;;;;;;;;22.44;49.26;101467.72;7286574;19;151638;-58
2022/06/03 11:39:51;;;;;;;;;;;;;;;22.45;48.85;101463.75;7275823;19;153925;-58
2022/06/03 11:42:22;;;;;;;;;;;;;;;22.43;49.29;101473.66;7276567;19;151846;-57
2022/06/03 11:44:53;;;;;;;;;;;;;;;22.44;48.86;101464.09;7277444;19;152788;-57
2022/06/03 11:47:20;;;;;;;;;;;;;;;22.46;48.80;101471.06;7274042;19;153182;-58
2022/06/03 11:49:47;;;;;;;;;;;;;;;22.45;49.07;101471.38;7277044;19;152275;-57
2022/06/03 11:52:13;;;;;;;;;;;;;;;22.48;48.75;101470.75;7274424;19;153248;-56
2022/06/03 11:54:40;;;;;;;;;;;;;;;22.45;49.07;101471.38;7275338;19;153416;-58
2022/06/03 11:57:07;;;;;;;;;;;;;;;22.46;48.51;101470.22;7269001;19;152338;-57
2022/06/03 11:59:45;;;;;;;;;;;;;;;22.48;48.55;101476.41;7275979;19;153779;-57
2022/06/03 12:02:17;;;;;;;;;;;;;;;22.47;48.85;101463.47;7276002;19;152021;-56
2022/06/03 12:04:56;;;;;;;;;;;;;;;22.45;48.92;101472.19;7276360;19;154927;-57
2022/06/03 12:07:34;;;;;;;;;;;;;;;22.40;48.62;101463.84;7280754;19;153972;-58
2022/06/03 12:10:21;;;;;;;;;;;;;;;22.40;48.34;101469.47;7283198;19;152282;-57
2022/06/03 12:15:38;;;;;;;;;;;;;;;22.46;48.35;101471.06;7279720;19;153254;-57
2022/06/03 12:18:11;;;;;;;;;;;;;;;22.44;48.15;101466.91;7283511;19;152229;-59
2022/06/03 12:20:47;;;;;;;;;;;;;;;22.43;48.14;101474.50;7281459;19;153502;-57
2022/06/03 12:23:24;;;;;;;;;;;;;;;22.51;48.25;101461.69;7282707;19;153370;-55
2022/06/03 12:25:55;;;;;;;;;;;;;;;22.48;48.26;101451.91;7281054;19;152589;-58
2022/06/03 12:28:26;;;;;;;;;;;;;;;22.52;48.26;101466.19;7282117;19;155609;-59
2022/06/03 12:30:58;;;;;;;;;;;;;;;22.55;47.93;101460.75;7281825;19;153010;-58
2022/06/03 12:33:43;;;;;;;;;;;;;;;22.50;48.07;101466.47;7282670;19;153160;-56
2022/06/03 12:36:12;;;;;;;;;;;;;;;22.52;48.39;101469.84;7280371;19;153625;-56
2022/06/03 12:38:44;;;;;;;;;;;;;;;22.64;48.49;101463.69;7282461;19;152020;-56
2022/06/03 12:41:31;;;;;;;;;;;;;;;22.70;51.43;101468.13;7284418;19;153350;-56
2022/06/03 12:44:00;;;;;;;;;;;;;;;22.68;51.28;101469.53;7280967;19;154148;-56
2022/06/03 12:46:41;;;;;;;;;;;;;;;22.67;50.98;101465.06;7288491;19;152052;-56
2022/06/03 12:49:23;;;;;;;;;;;;;;;22.63;51.43;101450.75;7277698;19;153783;-57
2022/06/03 12:52:01;;;;;;;;;;;;;;;22.61;51.87;101448.25;7281324;19;152627;-57
2022/06/03 12:54:28;;;;;;;;;;;;;;;22.62;51.62;101460.38;7282333;19;153357;-56
2022/06/03 12:56:58;;;;;;;;;;;;;;;22.61;50.75;101453.91;7279014;19;153111;-57
2022/06/03 12:59:29;;;;;;;;;;;;;;;22.60;50.78;101459.84;7280585;19;151787;-56
2022/06/03 13:02:00;;;;;;;;;;;;;;;22.58;50.61;101459.28;7280958;19;153622;-56
2022/06/03 13:04:45;;;;;;;;;;;;;;;22.59;50.49;101459.00;7279214;19;153927;-57
2022/06/03 13:07:14;;;;;;;;;;;;;;;22.57;50.39;101463.28;7281682;19;152135;-56
2022/06/03 13:10:07;;;;;;;;;;;;;;;22.52;50.59;101485.91;7288211;19;152671;-56
2022/06/03 13:12:36;;;;;;;;;;;;;;;22.54;50.51;101469.50;7278773;19;153084;-57
2022/06/03 13:15:21;;;;;;;;;;;;;;;22.52;50.32;101480.25;7281408;19;153858;-57
2022/06/03 13:20:38;;;;;;;;;;;;;;;22.47;50.57;101486.81;7281713;19;152195;-56
2022/06/03 13:23:24;;;;;;;;;;;;;;;22.47;50.61;101484.00;7280354;19;153128;-56
2022/06/03 13:25:52;;;;;;;;;;;;;;;22.46;50.49;101489.94;7278662;19;155138;-55
2022/06/03 13:28:25;;;;;;;;;;;;;;;22.43;50.54;101488.59;7279008;19;151760;-56
2022/06/03 13:31:03;;;;;;;;;;;;;;;22.43;50.43;101484.94;7281354;19;154326;-56
2022/06/03 13:33:31;;;;;;;;;;;;;;;22.42;50.28;101488.88;7289096;19;154375;-55
2022/06/03 13:36:05;;;;;;;;;;;;;;;22.40;50.24;101480.72;7280672;19;155133;-56
2022/06/03 13:38:42;;;;;;;;;;;;;;;22.39;50.33;101486.69;7280982;19;153825;-57
2022/06/03 13:44:40;;;;;;;;;;;;;;;22.41;49.91;101479.59;7278326;19;153244;-57
2022/06/03 13:47:10;;;;;;;;;;;;;;;22.41;50.06;101475.94;7278663;19;159406;-57